createdAt,value
2022-11-16T00:01:42.939Z,7.40
2022-11-16T00:04:32.439Z,7.30
2022-11-16T00:07:21.559Z,7.37
2022-11-16T00:10:13.090Z,7.39
2022-11-16T00:13:02.664Z,7.35
2022-11-16T00:16:03.914Z,7.30
2022-11-16T00:19:05.009Z,7.30
2022-11-16T00:22:00.482Z,7.34
2022-11-16T00:24:47.674Z,7.33
2022-11-16T00:27:34.842Z,7.31
2022-11-16T00:30:33.098Z,7.28
2022-11-16T00:33:22.902Z,7.37
2022-11-16T00:36:12.021Z,7.33
2022-11-16T00:39:03.444Z,7.33
2022-11-16T00:41:53.635Z,7.32
2022-11-16T00:44:47.787Z,7.33
2022-11-16T00:47:42.112Z,7.33
2022-11-16T00:50:29.128Z,7.27
2022-11-16T00:53:21.343Z,7.35
2022-11-16T00:56:14.438Z,7.31
2022-11-16T00:59:02.801Z,7.28
2022-11-16T01:01:49.868Z,7.31
2022-11-16T01:04:36.833Z,7.30
2022-11-16T01:07:25.912Z,7.33
2022-11-16T01:10:20.555Z,7.26
2022-11-16T01:13:10.099Z,7.27
2022-11-16T01:16:08.158Z,7.24
2022-11-16T01:18:58.460Z,7.19
2022-11-16T01:21:46.814Z,7.19
2022-11-16T01:24:36.671Z,7.22
2022-11-16T01:27:25.964Z,7.23
2022-11-16T01:30:15.527Z,7.28
2022-11-16T01:33:03.891Z,7.21
2022-11-16T01:35:53.453Z,7.19
2022-11-16T01:38:46.700Z,7.14
2022-11-16T01:41:35.118Z,7.17
2022-11-16T01:44:37.049Z,7.22
2022-11-16T01:47:27.586Z,7.15
2022-11-16T01:50:20.700Z,7.19
2022-11-16T01:53:12.473Z,7.12
2022-11-16T01:55:59.435Z,7.13
2022-11-16T01:58:46.654Z,7.17
2022-11-16T02:01:35.158Z,7.10
2022-11-16T02:04:26.030Z,7.12
2022-11-16T02:07:23.667Z,7.12
2022-11-16T02:10:23.313Z,7.09
2022-11-16T02:13:34.794Z,7.12
2022-11-16T02:16:36.841Z,7.17
2022-11-16T02:19:47.998Z,7.17
2022-11-16T02:22:55.311Z,7.16
2022-11-16T02:26:06.576Z,7.13
2022-11-16T02:29:41.511Z,7.13
2022-11-16T02:32:39.928Z,7.05
2022-11-16T02:35:39.743Z,7.07
2022-11-16T02:38:29.086Z,7.08
2022-11-16T02:41:24.472Z,7.10
2022-11-16T02:44:24.933Z,7.03
2022-11-16T02:47:21.371Z,7.00
2022-11-16T02:50:15.923Z,7.07
2022-11-16T02:53:07.288Z,6.97
2022-11-16T02:55:56.548Z,6.98
2022-11-16T02:58:45.251Z,7.08
2022-11-16T03:01:37.241Z,6.97
2022-11-16T03:04:29.726Z,7.03
2022-11-16T03:07:20.851Z,6.94
2022-11-16T03:10:08.452Z,6.98
2022-11-16T03:12:55.512Z,6.94
2022-11-16T03:15:42.927Z,6.94
2022-11-16T03:18:39.988Z,7.02
2022-11-16T03:21:47.553Z,7.03
2022-11-16T03:24:37.169Z,6.95
2022-11-16T03:27:35.997Z,6.92
2022-11-16T03:30:24.484Z,7.03
2022-11-16T03:33:45.051Z,7.00
2022-11-16T03:36:34.391Z,7.00
2022-11-16T03:39:28.078Z,6.96
2022-11-16T03:42:15.239Z,6.98
2022-11-16T03:45:03.749Z,6.98
2022-11-16T03:47:52.373Z,6.89
2022-11-16T03:50:42.890Z,6.92
2022-11-16T03:53:31.107Z,6.90
2022-11-16T03:56:18.246Z,6.89
2022-11-16T03:59:08.014Z,6.87
2022-11-16T04:02:06.302Z,6.93
2022-11-16T04:05:14.288Z,6.91
2022-11-16T04:08:25.894Z,6.93
2022-11-16T04:11:46.952Z,6.91
2022-11-16T04:14:52.828Z,6.86
2022-11-16T04:18:14.706Z,6.88
2022-11-16T04:21:21.148Z,6.85
2022-11-16T04:24:16.089Z,6.94
2022-11-16T04:27:24.950Z,6.86
2022-11-16T04:30:12.570Z,6.87
2022-11-16T04:33:18.020Z,6.88
2022-11-16T04:36:25.632Z,6.87
2022-11-16T04:39:12.634Z,6.82
2022-11-16T04:42:22.890Z,6.83
2022-11-16T04:45:30.907Z,6.87
2022-11-16T04:48:19.310Z,6.83
2022-11-16T04:51:06.405Z,6.82
2022-11-16T04:53:53.354Z,6.83
2022-11-16T04:56:40.226Z,6.77
2022-11-16T04:59:27.040Z,6.84
2022-11-16T05:02:16.753Z,6.82
2022-11-16T05:05:03.652Z,6.81
2022-11-16T05:07:51.218Z,6.84
2022-11-16T05:10:38.091Z,6.78
2022-11-16T05:13:24.887Z,6.85
2022-11-16T05:16:11.751Z,6.79
2022-11-16T05:19:17.325Z,6.82
2022-11-16T05:22:06.327Z,6.78
2022-11-16T05:24:53.687Z,6.84
2022-11-16T05:27:40.589Z,6.86
2022-11-16T05:30:29.689Z,6.84
2022-11-16T05:33:17.815Z,6.83
2022-11-16T05:36:04.782Z,6.82
2022-11-16T05:38:56.065Z,6.82
2022-11-16T05:41:43.221Z,6.82
2022-11-16T05:44:29.969Z,6.75
2022-11-16T05:47:16.900Z,6.74
2022-11-16T05:50:04.007Z,6.78
2022-11-16T05:52:50.816Z,6.78
2022-11-16T05:55:37.703Z,6.72
2022-11-16T05:58:26.772Z,6.74
2022-11-16T06:01:13.709Z,6.73
2022-11-16T06:04:03.928Z,6.79
2022-11-16T06:06:53.894Z,6.75
2022-11-16T06:09:40.775Z,6.75
2022-11-16T06:12:27.576Z,6.75
2022-11-16T06:15:14.456Z,6.72
2022-11-16T06:18:01.327Z,6.69
2022-11-16T06:20:48.422Z,6.75
2022-11-16T06:23:35.345Z,6.72
2022-11-16T06:26:22.352Z,6.75
2022-11-16T06:29:09.276Z,6.74
2022-11-16T06:31:56.119Z,6.75
2022-11-16T06:34:42.931Z,6.74
2022-11-16T06:37:29.801Z,6.77
2022-11-16T06:40:17.038Z,6.70
2022-11-16T06:43:04.169Z,6.77
2022-11-16T06:45:52.310Z,6.74
2022-11-16T06:48:39.127Z,6.74
2022-11-16T06:51:26.313Z,6.69
2022-11-16T06:54:13.094Z,6.71
2022-11-16T06:56:59.902Z,6.68
2022-11-16T06:59:46.840Z,6.65
2022-11-16T07:02:36.519Z,6.68
2022-11-16T07:05:23.494Z,6.71
2022-11-16T07:08:10.494Z,6.70
2022-11-16T07:11:04.310Z,6.66
2022-11-16T07:13:51.374Z,6.70
2022-11-16T07:16:38.307Z,6.71
2022-11-16T07:19:25.166Z,6.71
2022-11-16T07:22:12.099Z,6.72
2022-11-16T07:24:59.112Z,6.70
2022-11-16T07:27:46.093Z,6.70
2022-11-16T07:30:35.521Z,6.66
2022-11-16T07:33:25.517Z,6.70
2022-11-16T07:36:25.730Z,6.60
2022-11-16T07:39:15.683Z,6.66
2022-11-16T07:42:13.507Z,6.66
2022-11-16T07:45:03.739Z,6.71
2022-11-16T07:47:53.846Z,6.62
2022-11-16T07:50:41.218Z,6.62
2022-11-16T07:53:28.880Z,6.59
2022-11-16T07:56:25.635Z,6.57
2022-11-16T07:59:18.451Z,6.58
2022-11-16T08:02:05.994Z,6.57
2022-11-16T08:04:58.863Z,6.57
2022-11-16T08:07:49.060Z,6.59
2022-11-16T08:10:36.603Z,6.67
2022-11-16T08:13:43.644Z,6.68
2022-11-16T08:16:33.353Z,6.63
2022-11-16T08:19:20.498Z,6.67
2022-11-16T08:22:07.438Z,6.67
2022-11-16T08:24:58.375Z,6.64
2022-11-16T08:27:45.747Z,6.62
2022-11-16T08:30:32.720Z,6.64
2022-11-16T08:33:21.374Z,6.58
2022-11-16T08:36:14.013Z,6.66
2022-11-16T08:39:04.087Z,6.62
2022-11-16T08:41:54.082Z,6.60
2022-11-16T08:44:40.949Z,6.66
2022-11-16T08:47:31.653Z,6.68
2022-11-16T08:50:20.177Z,6.71
2022-11-16T08:53:07.019Z,6.67
2022-11-16T08:55:53.862Z,6.65
2022-11-16T08:58:46.792Z,6.65
2022-11-16T09:01:35.004Z,6.73
2022-11-16T09:04:22.874Z,6.71
2022-11-16T09:07:10.306Z,6.67
2022-11-16T09:10:00.142Z,6.69
2022-11-16T09:12:48.689Z,6.72
2022-11-16T09:15:35.718Z,6.70
2022-11-16T09:18:22.535Z,6.78
2022-11-16T09:21:09.674Z,6.72
2022-11-16T09:23:57.811Z,6.73
2022-11-16T09:26:44.727Z,6.73
2022-11-16T09:29:31.538Z,6.80
2022-11-16T09:32:18.454Z,6.78
2022-11-16T09:35:08.566Z,6.72
2022-11-16T09:37:55.404Z,6.80
2022-11-16T09:40:45.543Z,6.79
2022-11-16T09:43:45.595Z,6.80
2022-11-16T09:46:36.490Z,6.78
2022-11-16T09:49:34.983Z,6.79
2022-11-16T09:52:28.668Z,6.77
2022-11-16T09:55:26.517Z,6.73
2022-11-16T09:58:18.158Z,6.73
2022-11-16T10:01:19.885Z,6.81
2022-11-16T10:04:28.872Z,6.81
2022-11-16T10:07:23.159Z,6.78
2022-11-16T10:10:14.801Z,6.75
2022-11-16T10:13:23.494Z,6.80
2022-11-16T10:16:33.578Z,6.82
2022-11-16T10:19:30.439Z,6.82
2022-11-16T10:22:30.575Z,6.80
2022-11-16T10:25:26.251Z,6.78
2022-11-16T10:28:37.832Z,6.80
2022-11-16T10:31:33.712Z,6.85
2022-11-16T10:34:25.535Z,6.85
2022-11-16T10:37:13.405Z,6.82
2022-11-16T10:40:05.681Z,6.84
2022-11-16T10:43:14.535Z,6.84
2022-11-16T10:46:23.671Z,6.84
2022-11-16T10:49:29.225Z,6.86
2022-11-16T10:52:16.103Z,6.81
2022-11-16T10:55:02.968Z,6.80
2022-11-16T10:58:05.237Z,6.81
2022-11-16T11:00:52.183Z,6.82
2022-11-16T11:03:39.070Z,6.85
2022-11-16T11:06:26.550Z,6.79
2022-11-16T11:09:25.626Z,6.83
2022-11-16T11:12:38.236Z,6.86
2022-11-16T11:15:27.100Z,6.87
2022-11-16T11:18:19.914Z,6.88
2022-11-16T11:21:13.097Z,6.88
2022-11-16T11:24:16.361Z,6.87
2022-11-16T11:27:07.827Z,6.89
2022-11-16T11:29:55.672Z,6.92
2022-11-16T11:32:42.470Z,6.92
2022-11-16T11:35:31.554Z,6.87
2022-11-16T11:38:18.438Z,6.91
2022-11-16T11:41:20.968Z,6.92
2022-11-16T11:44:14.030Z,6.94
2022-11-16T11:50:48.402Z,6.95
2022-11-16T11:53:52.705Z,6.95
2022-11-16T11:56:39.467Z,6.95
2022-11-16T11:59:29.312Z,6.99
2022-11-16T12:02:28.278Z,7.03
2022-11-16T12:05:51.769Z,7.04
2022-11-16T12:08:47.702Z,7.05
2022-11-16T12:11:46.898Z,7.05
2022-11-16T12:14:55.650Z,7.04
2022-11-16T12:17:45.712Z,6.99
2022-11-16T12:20:44.692Z,7.00
2022-11-16T12:23:52.028Z,6.95
2022-11-16T12:26:55.667Z,7.02
2022-11-16T12:30:13.663Z,7.00
2022-11-16T12:33:23.675Z,7.00
2022-11-16T12:36:23.786Z,7.04
2022-11-16T12:39:30.771Z,7.00
2022-11-16T12:42:29.527Z,7.00
2022-11-16T12:45:30.883Z,7.02
2022-11-16T12:48:31.072Z,7.06
2022-11-16T12:51:32.704Z,7.06
2022-11-16T12:54:57.927Z,7.08
2022-11-16T12:58:03.238Z,7.06
2022-11-16T13:01:08.058Z,7.10
2022-11-16T13:04:04.366Z,7.07
2022-11-16T13:06:58.555Z,7.07
2022-11-16T13:09:58.542Z,7.07
2022-11-16T13:12:52.723Z,7.06
2022-11-16T13:15:43.344Z,7.09
2022-11-16T13:18:33.142Z,7.06
2022-11-16T13:21:53.742Z,7.13
2022-11-16T13:24:48.653Z,7.16
2022-11-16T13:27:48.925Z,7.15
2022-11-16T13:30:57.933Z,7.13
2022-11-16T13:33:52.296Z,7.18
2022-11-16T13:36:43.686Z,7.14
2022-11-16T13:39:58.698Z,7.21
2022-11-16T13:43:17.232Z,7.18
2022-11-16T13:46:04.055Z,7.24
2022-11-16T13:48:51.905Z,7.24
2022-11-16T13:51:38.703Z,7.26
2022-11-16T13:54:46.986Z,7.27
2022-11-16T13:57:34.959Z,7.28
2022-11-16T14:00:24.747Z,7.27
2022-11-16T14:03:17.710Z,7.32
2022-11-16T14:06:06.908Z,7.30
2022-11-16T14:08:54.141Z,7.33
2022-11-16T14:11:41.062Z,7.30
2022-11-16T14:15:12.293Z,7.31
2022-11-16T14:18:02.417Z,7.32
2022-11-16T14:20:58.825Z,7.38
2022-11-16T14:24:01.658Z,7.35
2022-11-16T14:27:00.349Z,7.39
2022-11-16T14:30:01.681Z,7.37
2022-11-16T14:32:52.317Z,7.37
2022-11-16T14:35:39.773Z,7.36
2022-11-16T14:38:29.034Z,7.40
2022-11-16T14:41:22.270Z,7.42
2022-11-16T14:44:10.005Z,7.33
2022-11-16T14:46:57.148Z,7.40
2022-11-16T14:49:52.434Z,7.38
2022-11-16T14:52:47.896Z,7.43
2022-11-16T14:55:41.443Z,7.41
2022-11-16T14:58:28.791Z,7.46
2022-11-16T15:01:17.645Z,7.47
2022-11-16T15:04:09.573Z,7.44
2022-11-16T15:07:05.864Z,7.48
2022-11-16T15:09:55.145Z,7.49
2022-11-16T15:12:42.041Z,7.51
2022-11-16T15:15:30.680Z,7.47
2022-11-16T15:18:19.126Z,7.48
2022-11-16T15:21:06.463Z,7.51
2022-11-16T15:24:23.584Z,7.51
2022-11-16T15:27:37.014Z,7.53
2022-11-16T15:32:01.642Z,7.54
2022-11-16T15:33:57.764Z,7.47
2022-11-16T15:36:44.989Z,7.57
2022-11-16T15:39:34.512Z,7.60
2022-11-16T15:42:24.000Z,7.65
2022-11-16T15:45:22.330Z,7.62
2022-11-16T15:48:21.212Z,7.68
2022-11-16T15:51:19.367Z,7.77
2022-11-16T15:54:27.638Z,7.81
2022-11-16T15:57:14.635Z,7.85
2022-11-16T16:00:01.564Z,7.88
2022-11-16T16:02:50.931Z,7.89
2022-11-16T16:05:41.050Z,7.90
2022-11-16T16:08:37.895Z,7.94
2022-11-16T16:11:26.867Z,7.99
2022-11-16T16:14:25.970Z,8.01
2022-11-16T16:17:23.297Z,7.95
2022-11-16T16:20:18.260Z,8.03
2022-11-16T16:23:10.157Z,8.06
2022-11-16T16:25:56.915Z,8.05
2022-11-16T16:28:44.388Z,8.08
2022-11-16T16:31:31.272Z,8.10
2022-11-16T16:34:18.434Z,8.11
2022-11-16T16:37:08.617Z,8.11
2022-11-16T16:39:55.505Z,8.11
2022-11-16T16:42:43.223Z,8.11
2022-11-16T16:45:43.386Z,8.11
2022-11-16T16:48:30.257Z,8.17
2022-11-16T16:51:17.182Z,8.13
2022-11-16T16:54:06.068Z,8.15
2022-11-16T16:56:53.097Z,8.16
2022-11-16T16:59:45.227Z,8.16
2022-11-16T17:02:32.328Z,8.17
2022-11-16T17:05:19.130Z,8.20
2022-11-16T17:08:08.718Z,8.17
2022-11-16T17:10:55.597Z,8.15
2022-11-16T17:13:53.853Z,8.17
2022-11-16T17:16:40.982Z,8.18
2022-11-16T17:19:28.811Z,8.14
2022-11-16T17:22:15.931Z,8.18
2022-11-16T17:25:02.925Z,8.22
2022-11-16T17:27:49.757Z,8.19
2022-11-16T17:30:36.791Z,8.21
2022-11-16T17:33:23.698Z,8.18
2022-11-16T17:36:12.286Z,8.24
2022-11-16T17:38:59.188Z,8.26
2022-11-16T17:41:46.210Z,8.21
2022-11-16T17:44:33.255Z,8.21
2022-11-16T17:47:20.383Z,8.25
2022-11-16T17:50:09.123Z,8.22
2022-11-16T17:52:56.078Z,8.24
2022-11-16T17:55:42.938Z,8.27
2022-11-16T17:58:30.610Z,8.23
2022-11-16T18:01:17.921Z,8.18
2022-11-16T18:04:06.959Z,8.26
2022-11-16T18:07:00.684Z,8.27
2022-11-16T18:09:49.152Z,8.25
2022-11-16T18:12:36.439Z,8.21
2022-11-16T18:15:29.286Z,8.17
2022-11-16T18:18:16.873Z,8.16
2022-11-16T18:21:19.845Z,8.24
2022-11-16T18:27:37.754Z,8.21
2022-11-16T18:30:26.749Z,8.26
2022-11-16T18:33:16.201Z,8.23
2022-11-16T18:36:08.857Z,8.18
2022-11-16T18:39:00.432Z,8.23
2022-11-16T18:41:54.770Z,8.25
2022-11-16T18:44:50.612Z,8.28
2022-11-16T18:47:39.716Z,8.22
2022-11-16T18:50:42.469Z,8.19
2022-11-16T18:54:12.988Z,8.27
2022-11-16T18:57:18.863Z,8.23
2022-11-16T19:00:22.153Z,8.16
2022-11-16T19:03:14.311Z,8.13
2022-11-16T19:13:22.730Z,8.17
2022-11-16T19:16:20.957Z,8.16
2022-11-16T19:19:16.405Z,8.25
2022-11-16T19:22:26.076Z,8.22
2022-11-16T19:25:35.288Z,8.17
2022-11-16T19:28:28.483Z,8.22
2022-11-16T19:31:24.650Z,8.28
2022-11-16T19:34:17.138Z,8.27
2022-11-16T19:37:35.408Z,8.21
2022-11-16T19:40:39.599Z,8.17
2022-11-16T19:43:33.104Z,8.27
2022-11-16T19:46:24.440Z,8.20
2022-11-16T19:49:26.122Z,8.18
2022-11-16T19:52:16.520Z,8.24
2022-11-16T19:59:09.808Z,8.22
2022-11-16T20:01:44.874Z,8.18
2022-11-16T20:04:45.035Z,8.23
2022-11-16T20:07:57.308Z,8.20
2022-11-16T20:10:51.503Z,8.21
2022-11-16T20:16:41.795Z,8.26
2022-11-16T20:19:45.038Z,8.14
2022-11-16T20:22:39.892Z,8.20
2022-11-16T20:25:29.121Z,8.27
2022-11-16T20:28:19.471Z,8.27
2022-11-16T20:31:28.515Z,8.26
2022-11-16T20:34:16.333Z,8.28
2022-11-16T20:37:10.831Z,8.21
2022-11-16T20:39:57.737Z,8.25
2022-11-16T20:42:47.527Z,8.19
2022-11-16T20:45:43.420Z,8.25
2022-11-16T20:48:39.259Z,8.18
2022-11-16T20:51:57.644Z,8.14
2022-11-16T20:54:47.024Z,8.23
2022-11-16T20:58:22.783Z,8.23
2022-11-16T21:01:32.389Z,8.23
2022-11-16T21:04:25.914Z,8.20
2022-11-16T21:07:16.472Z,8.17
2022-11-16T21:10:21.073Z,8.24
2022-11-16T21:13:34.971Z,8.16
2022-11-16T21:20:26.343Z,8.17
2022-11-16T21:26:25.764Z,8.16
2022-11-16T21:29:28.913Z,8.28
2022-11-16T21:32:15.923Z,8.24
2022-11-16T21:35:07.909Z,8.22
2022-11-16T21:37:57.620Z,8.26
2022-11-16T21:40:48.104Z,8.23
2022-11-16T21:43:38.236Z,8.29
2022-11-16T21:46:26.503Z,8.26
2022-11-16T21:49:13.501Z,8.22
2022-11-16T21:52:00.595Z,8.26
2022-11-16T21:54:49.899Z,8.23
2022-11-16T21:57:39.055Z,8.27
2022-11-16T22:00:26.218Z,8.27
2022-11-16T22:03:13.296Z,8.19
2022-11-16T22:06:21.545Z,8.26
2022-11-16T22:09:08.728Z,8.29
2022-11-16T22:11:59.869Z,8.17
2022-11-16T22:14:53.440Z,8.30
2022-11-16T22:17:44.218Z,8.22
2022-11-16T22:20:31.283Z,8.30
2022-11-16T22:23:23.320Z,8.25
2022-11-16T22:26:12.562Z,8.30
2022-11-16T22:28:59.425Z,8.27
2022-11-16T22:31:49.426Z,8.20
2022-11-16T22:34:41.270Z,8.30
2022-11-16T22:37:30.936Z,8.24
2022-11-16T22:40:28.791Z,8.19
2022-11-16T22:43:15.580Z,8.16
2022-11-16T22:46:04.855Z,8.24
2022-11-16T22:49:07.235Z,8.28
2022-11-16T22:51:55.330Z,8.24
2022-11-16T22:54:47.712Z,8.24
2022-11-16T22:57:37.508Z,8.24
2022-11-16T23:00:24.459Z,8.24
2022-11-16T23:03:11.292Z,8.22
2022-11-16T23:05:58.190Z,8.28
2022-11-16T23:08:49.739Z,8.25
2022-11-16T23:11:55.306Z,8.24
2022-11-16T23:15:00.880Z,8.20
2022-11-16T23:17:47.746Z,8.27
2022-11-16T23:20:53.272Z,8.24
2022-11-16T23:24:00.530Z,8.22
2022-11-16T23:27:06.166Z,8.14
2022-11-16T23:29:53.504Z,8.18
2022-11-16T23:32:41.563Z,8.17
2022-11-16T23:35:28.413Z,8.22
2022-11-16T23:38:15.279Z,8.12
2022-11-16T23:41:22.192Z,8.13
2022-11-16T23:44:08.989Z,8.13
2022-11-16T23:46:56.998Z,8.18
2022-11-16T23:49:43.888Z,8.21
2022-11-16T23:52:30.839Z,8.11
2022-11-16T23:55:17.783Z,8.11
2022-11-16T23:58:13.374Z,8.18
